createdAt,value
2023-02-13T00:00:35.501Z,12.27
2023-02-13T00:03:02.398Z,12.27
2023-02-13T00:05:29.172Z,12.27
2023-02-13T00:07:56.997Z,12.26
2023-02-13T00:10:24.102Z,12.27
2023-02-13T00:12:50.876Z,12.26
2023-02-13T00:15:17.672Z,12.25
2023-02-13T00:17:44.477Z,12.26
2023-02-13T00:20:12.287Z,12.27
2023-02-13T00:22:39.114Z,12.26
2023-02-13T00:25:07.479Z,12.26
2023-02-13T00:27:34.673Z,12.25
2023-02-13T00:30:01.453Z,12.24
2023-02-13T00:32:28.328Z,12.23
2023-02-13T00:34:55.676Z,12.24
2023-02-13T00:37:22.577Z,12.21
2023-02-13T00:39:49.353Z,12.22
2023-02-13T00:42:16.141Z,12.22
2023-02-13T00:44:42.931Z,12.23
2023-02-13T00:47:09.797Z,12.21
2023-02-13T00:49:42.038Z,12.23
2023-02-13T00:52:08.820Z,12.24
2023-02-13T00:54:35.696Z,12.24
2023-02-13T00:57:02.888Z,12.22
2023-02-13T00:59:29.681Z,12.22
2023-02-13T01:01:56.510Z,12.23
2023-02-13T01:04:23.335Z,12.22
2023-02-13T01:06:50.130Z,12.21
2023-02-13T01:09:16.912Z,12.20
2023-02-13T01:11:43.800Z,12.20
2023-02-13T01:14:10.585Z,12.20
2023-02-13T01:16:37.334Z,12.20
2023-02-13T01:19:05.597Z,12.21
2023-02-13T01:21:32.377Z,12.19
2023-02-13T01:24:03.429Z,12.20
2023-02-13T01:26:30.217Z,12.19
2023-02-13T01:28:58.027Z,12.18
2023-02-13T01:31:25.214Z,12.18
2023-02-13T01:33:52.594Z,12.18
2023-02-13T01:36:19.352Z,12.17
2023-02-13T01:38:46.210Z,12.16
2023-02-13T01:41:13.671Z,12.16
2023-02-13T01:43:59.336Z,12.16
2023-02-13T01:46:39.710Z,12.15
2023-02-13T01:49:18.556Z,12.14
2023-02-13T01:51:47.710Z,12.14
2023-02-13T01:54:19.605Z,12.12
2023-02-13T01:56:55.805Z,12.12
2023-02-13T01:59:51.368Z,12.11
2023-02-13T02:02:19.618Z,12.10
2023-02-13T02:04:47.846Z,12.09
2023-02-13T02:07:21.542Z,12.07
2023-02-13T02:09:49.293Z,12.07
2023-02-13T02:12:36.356Z,12.08
2023-02-13T02:15:05.325Z,12.06
2023-02-13T02:17:32.389Z,12.05
2023-02-13T02:20:23.053Z,12.07
2023-02-13T02:23:33.094Z,12.03
2023-02-13T02:26:58.317Z,12.02
2023-02-13T02:30:02.690Z,12.01
2023-02-13T02:32:58.060Z,12.00
2023-02-13T02:35:45.412Z,12.00
2023-02-13T02:38:37.244Z,12.00
2023-02-13T02:41:36.651Z,12.00
2023-02-13T02:44:42.920Z,11.97
2023-02-13T02:47:45.691Z,11.99
2023-02-13T02:50:27.302Z,11.97
2023-02-13T02:53:03.835Z,11.99
2023-02-13T02:55:50.388Z,11.99
2023-02-13T02:59:00.276Z,11.98
2023-02-13T03:01:48.734Z,11.97
2023-02-13T03:04:50.529Z,11.96
2023-02-13T03:07:20.178Z,11.97
2023-02-13T03:10:28.926Z,11.97
2023-02-13T03:13:23.713Z,11.98
2023-02-13T03:16:12.193Z,11.96
2023-02-13T03:19:03.193Z,11.96
2023-02-13T03:22:07.374Z,11.95
2023-02-13T03:24:45.319Z,11.95
2023-02-13T03:27:43.432Z,11.96
2023-02-13T03:30:33.622Z,11.94
2023-02-13T03:33:54.019Z,11.93
2023-02-13T03:36:52.268Z,11.93
2023-02-13T03:39:34.980Z,11.93
2023-02-13T03:42:06.951Z,11.94
2023-02-13T03:44:42.278Z,11.95
2023-02-13T03:47:11.718Z,11.94
2023-02-13T03:50:03.300Z,11.95
2023-02-13T03:52:50.931Z,11.95
2023-02-13T03:55:44.645Z,11.94
2023-02-13T03:58:47.143Z,11.94
2023-02-13T04:01:18.088Z,11.92
2023-02-13T04:04:10.857Z,11.92
2023-02-13T04:06:53.791Z,11.92
2023-02-13T04:09:20.643Z,11.89
2023-02-13T04:12:19.122Z,11.91
2023-02-13T04:14:59.994Z,11.91
2023-02-13T04:17:49.700Z,11.89
2023-02-13T04:20:16.784Z,11.87
2023-02-13T04:22:45.665Z,11.87
2023-02-13T04:25:15.979Z,11.90
2023-02-13T04:27:43.280Z,11.91
2023-02-13T04:30:11.027Z,11.92
2023-02-13T04:32:37.776Z,11.92
2023-02-13T04:35:04.772Z,11.92
2023-02-13T04:37:31.546Z,11.93
2023-02-13T04:39:58.301Z,11.92
2023-02-13T04:42:25.112Z,11.93
2023-02-13T04:44:51.909Z,11.92
2023-02-13T04:47:18.652Z,11.92
2023-02-13T04:49:45.417Z,11.91
2023-02-13T04:52:12.212Z,11.91
2023-02-13T04:54:38.991Z,11.90
2023-02-13T04:57:05.793Z,11.91
2023-02-13T04:59:32.561Z,11.91
2023-02-13T05:01:59.386Z,11.91
2023-02-13T05:04:26.276Z,11.93
2023-02-13T05:06:53.175Z,11.91
2023-02-13T05:09:19.953Z,11.91
2023-02-13T05:11:46.752Z,11.91
2023-02-13T05:14:13.915Z,11.91
2023-02-13T05:16:40.686Z,11.92
2023-02-13T05:19:07.495Z,11.93
2023-02-13T05:21:52.572Z,11.92
2023-02-13T05:24:20.578Z,11.91
2023-02-13T05:26:47.529Z,11.91
2023-02-13T05:29:20.526Z,11.91
2023-02-13T05:31:50.921Z,11.91
2023-02-13T05:34:17.755Z,11.91
2023-02-13T05:36:44.922Z,11.89
2023-02-13T05:39:11.688Z,11.90
2023-02-13T05:41:38.462Z,11.89
2023-02-13T05:44:05.727Z,11.90
2023-02-13T05:46:32.669Z,11.89
2023-02-13T05:48:59.815Z,11.89
2023-02-13T05:51:26.591Z,11.90
2023-02-13T05:53:53.403Z,11.91
2023-02-13T05:56:20.193Z,11.89
2023-02-13T05:58:46.980Z,11.89
2023-02-13T06:01:13.884Z,11.90
2023-02-13T06:03:40.684Z,11.89
2023-02-13T06:06:07.520Z,11.90
2023-02-13T06:08:34.332Z,11.89
2023-02-13T06:11:01.742Z,11.88
2023-02-13T06:13:28.772Z,11.87
2023-02-13T06:15:55.739Z,11.87
2023-02-13T06:18:23.179Z,11.90
2023-02-13T06:20:49.974Z,11.88
2023-02-13T06:23:18.051Z,11.89
2023-02-13T06:25:44.814Z,11.86
2023-02-13T06:28:11.632Z,11.86
2023-02-13T06:30:38.533Z,11.88
2023-02-13T06:33:05.315Z,11.86
2023-02-13T06:35:32.290Z,11.87
2023-02-13T06:37:59.058Z,11.86
2023-02-13T06:40:25.836Z,11.87
2023-02-13T06:42:52.678Z,11.87
2023-02-13T06:45:19.448Z,11.87
2023-02-13T06:47:48.425Z,11.86
2023-02-13T06:50:16.850Z,11.85
2023-02-13T06:52:51.682Z,11.87
2023-02-13T06:55:20.666Z,11.86
2023-02-13T06:57:47.933Z,11.85
2023-02-13T07:00:17.026Z,11.86
2023-02-13T07:02:45.961Z,11.84
2023-02-13T07:05:13.239Z,11.85
2023-02-13T07:07:42.066Z,11.86
2023-02-13T07:10:13.091Z,11.88
2023-02-13T07:12:40.116Z,11.87
2023-02-13T07:15:08.052Z,11.87
2023-02-13T07:17:35.059Z,11.89
2023-02-13T07:20:02.147Z,11.89
2023-02-13T07:22:31.190Z,11.91
2023-02-13T07:24:58.993Z,11.90
2023-02-13T07:27:29.099Z,11.92
2023-02-13T07:29:57.464Z,11.93
2023-02-13T07:32:25.590Z,11.94
2023-02-13T07:35:01.368Z,11.96
2023-02-13T07:37:31.330Z,11.97
2023-02-13T07:39:58.181Z,11.99
2023-02-13T07:42:25.108Z,12.00
2023-02-13T07:44:51.924Z,12.01
2023-02-13T07:47:20.142Z,12.04
2023-02-13T07:49:47.147Z,12.05
2023-02-13T07:52:13.954Z,12.06
2023-02-13T07:54:47.141Z,12.06
2023-02-13T07:57:17.732Z,12.08
2023-02-13T07:59:45.324Z,12.08
2023-02-13T08:02:14.210Z,12.08
2023-02-13T08:04:41.662Z,12.09
2023-02-13T08:07:08.481Z,12.12
2023-02-13T08:09:53.692Z,12.14
2023-02-13T08:12:20.883Z,12.16
2023-02-13T08:14:47.740Z,12.15
2023-02-13T08:17:14.590Z,12.18
2023-02-13T08:19:41.349Z,12.19
2023-02-13T08:22:08.106Z,12.24
2023-02-13T08:24:34.971Z,12.25
2023-02-13T08:27:01.722Z,12.28
2023-02-13T08:29:28.514Z,12.29
2023-02-13T08:31:55.368Z,12.30
2023-02-13T08:34:22.147Z,12.32
2023-02-13T08:36:48.997Z,12.34
2023-02-13T08:39:15.734Z,12.35
2023-02-13T08:41:43.418Z,12.36
2023-02-13T08:44:11.256Z,12.39
2023-02-13T08:46:38.148Z,12.41
2023-02-13T08:49:05.117Z,12.43
2023-02-13T08:51:32.861Z,12.46
2023-02-13T08:53:59.682Z,12.48
2023-02-13T08:56:26.476Z,12.50
2023-02-13T08:58:53.331Z,12.52
2023-02-13T09:01:20.163Z,12.55
2023-02-13T09:03:46.935Z,12.57
2023-02-13T09:06:13.962Z,12.60
2023-02-13T09:08:40.763Z,12.62
2023-02-13T09:11:07.632Z,12.67
2023-02-13T09:13:36.973Z,12.72
2023-02-13T09:16:06.863Z,12.75
2023-02-13T09:18:35.127Z,12.77
2023-02-13T09:21:08.093Z,12.81
2023-02-13T09:23:37.934Z,12.84
2023-02-13T09:26:07.932Z,12.89
2023-02-13T09:28:36.520Z,12.92
2023-02-13T09:31:09.582Z,12.96
2023-02-13T09:33:37.294Z,12.99
2023-02-13T09:36:10.192Z,13.02
2023-02-13T09:38:37.011Z,13.06
2023-02-13T09:41:11.198Z,13.10
2023-02-13T09:44:33.929Z,13.14
2023-02-13T09:47:31.812Z,13.17
2023-02-13T09:50:11.995Z,13.22
2023-02-13T09:52:39.750Z,13.24
2023-02-13T09:55:31.195Z,13.29
2023-02-13T09:58:41.926Z,13.33
2023-02-13T10:01:31.210Z,13.36
2023-02-13T10:04:41.638Z,13.41
2023-02-13T10:07:37.107Z,13.45
2023-02-13T10:10:44.646Z,13.50
2023-02-13T10:13:15.900Z,13.54
2023-02-13T10:15:56.892Z,13.60
2023-02-13T10:18:38.269Z,13.64
2023-02-13T10:21:07.327Z,13.67
2023-02-13T10:23:44.628Z,13.67
2023-02-13T10:26:23.985Z,13.67
2023-02-13T10:29:25.915Z,13.69
2023-02-13T10:31:55.840Z,13.69
2023-02-13T10:34:27.242Z,13.72
2023-02-13T10:36:54.385Z,13.76
2023-02-13T10:39:30.309Z,13.81
2023-02-13T10:42:22.596Z,13.85
2023-02-13T10:45:20.439Z,13.89
2023-02-13T10:48:15.853Z,13.90
2023-02-13T10:51:16.240Z,13.91
2023-02-13T10:53:54.124Z,13.94
2023-02-13T11:00:14.569Z,14.00
2023-02-13T11:02:41.330Z,14.03
2023-02-13T11:05:18.377Z,14.07
2023-02-13T11:07:49.364Z,14.11
2023-02-13T11:10:17.593Z,14.14
2023-02-13T11:12:44.793Z,14.18
2023-02-13T11:15:29.678Z,14.23
2023-02-13T11:18:17.169Z,14.26
2023-02-13T11:20:47.907Z,14.26
2023-02-13T11:23:29.609Z,14.30
2023-02-13T11:26:09.073Z,14.31
2023-02-13T11:28:49.299Z,14.34
2023-02-13T11:31:24.135Z,14.36
2023-02-13T11:33:51.466Z,14.39
2023-02-13T11:36:30.092Z,14.44
2023-02-13T11:39:06.297Z,14.48
2023-02-13T11:41:42.688Z,14.51
2023-02-13T11:44:28.351Z,14.53
2023-02-13T11:46:59.545Z,14.53
2023-02-13T11:49:33.582Z,14.56
2023-02-13T11:52:17.218Z,14.60
2023-02-13T11:54:44.981Z,14.62
2023-02-13T11:57:34.691Z,14.66
2023-02-13T12:00:30.888Z,14.67
2023-02-13T12:02:57.954Z,14.67
2023-02-13T12:05:28.034Z,14.73
2023-02-13T12:08:01.602Z,14.78
2023-02-13T12:10:31.580Z,14.80
2023-02-13T12:13:11.782Z,14.83
2023-02-13T12:15:38.824Z,14.82
2023-02-13T12:18:05.469Z,14.86
2023-02-13T12:21:00.907Z,14.89
2023-02-13T12:23:43.684Z,14.90
2023-02-13T12:26:34.067Z,14.89
2023-02-13T12:29:20.675Z,14.86
2023-02-13T12:32:11.158Z,14.84
2023-02-13T12:35:21.936Z,14.78
2023-02-13T12:38:22.572Z,14.76
2023-02-13T12:41:07.513Z,14.72
2023-02-13T12:43:56.219Z,14.70
2023-02-13T12:47:07.270Z,14.66
2023-02-13T12:50:34.083Z,14.63
2023-02-13T12:53:43.607Z,14.61
2023-02-13T12:56:32.369Z,14.62
2023-02-13T12:59:30.143Z,14.63
2023-02-13T13:02:15.220Z,14.63
2023-02-13T13:05:14.971Z,14.61
2023-02-13T13:08:20.875Z,14.63
2023-02-13T13:10:55.014Z,14.64
2023-02-13T13:13:52.677Z,14.67
2023-02-13T13:16:42.943Z,14.68
2023-02-13T13:19:30.800Z,14.68
2023-02-13T13:22:25.829Z,14.69
2023-02-13T13:25:12.129Z,14.64
2023-02-13T13:27:49.607Z,14.62
2023-02-13T13:30:26.260Z,14.64
2023-02-13T13:33:33.277Z,14.61
2023-02-13T13:36:40.104Z,14.60
2023-02-13T13:39:43.092Z,14.58
2023-02-13T13:42:43.077Z,14.56
2023-02-13T13:45:25.254Z,14.54
2023-02-13T13:48:37.517Z,14.47
2023-02-13T13:51:07.433Z,14.46
2023-02-13T13:53:34.200Z,14.45
2023-02-13T13:56:05.855Z,14.42
2023-02-13T13:58:45.953Z,14.40
2023-02-13T14:01:23.313Z,14.39
2023-02-13T14:04:24.366Z,14.37
2023-02-13T14:06:50.989Z,14.34
2023-02-13T14:09:26.763Z,14.35
2023-02-13T14:11:56.512Z,14.32
2023-02-13T14:14:30.308Z,14.31
2023-02-13T14:16:58.641Z,14.31
2023-02-13T14:19:39.562Z,14.31
2023-02-13T14:22:37.590Z,14.28
2023-02-13T14:25:07.672Z,14.28
2023-02-13T14:27:38.136Z,14.28
2023-02-13T14:30:38.307Z,14.30
2023-02-13T14:33:09.237Z,14.28
2023-02-13T14:35:38.713Z,14.28
2023-02-13T14:38:08.089Z,14.26
2023-02-13T14:40:52.926Z,14.27
2023-02-13T14:43:49.271Z,14.25
2023-02-13T14:46:27.505Z,14.23
2023-02-13T14:49:16.488Z,14.21
2023-02-13T14:51:52.024Z,14.18
2023-02-13T14:54:39.487Z,14.17
2023-02-13T14:57:17.831Z,14.15
2023-02-13T14:59:50.379Z,14.13
2023-02-13T15:02:31.275Z,14.11
2023-02-13T15:05:06.908Z,14.10
2023-02-13T15:07:45.312Z,14.09
2023-02-13T15:10:44.177Z,14.06
2023-02-13T15:13:18.349Z,14.03
2023-02-13T15:15:52.915Z,14.02
2023-02-13T15:18:31.085Z,14.00
2023-02-13T15:21:00.798Z,13.98
2023-02-13T15:23:33.454Z,13.97
2023-02-13T15:26:03.835Z,13.95
2023-02-13T15:28:31.712Z,13.93
2023-02-13T15:31:23.556Z,13.92
2023-02-13T15:33:51.924Z,13.89
2023-02-13T15:36:25.532Z,13.87
2023-02-13T15:39:09.528Z,13.85
2023-02-13T15:41:41.035Z,13.82
2023-02-13T15:44:08.014Z,13.79
2023-02-13T15:46:38.428Z,13.77
2023-02-13T15:49:08.767Z,13.75
2023-02-13T15:51:35.993Z,13.71
2023-02-13T15:54:07.792Z,13.70
2023-02-13T15:56:35.496Z,13.66
2023-02-13T15:59:03.539Z,13.64
2023-02-13T16:01:32.017Z,13.63
2023-02-13T16:04:06.946Z,13.61
2023-02-13T16:06:34.434Z,13.58
2023-02-13T16:09:01.905Z,13.56
2023-02-13T16:11:32.467Z,13.54
2023-02-13T16:14:24.680Z,13.51
2023-02-13T16:16:56.896Z,13.49
2023-02-13T16:19:51.109Z,13.45
2023-02-13T16:22:38.685Z,13.41
2023-02-13T16:25:38.935Z,13.38
2023-02-13T16:28:20.887Z,13.34
2023-02-13T16:31:00.558Z,13.32
2023-02-13T16:33:33.949Z,13.30
2023-02-13T16:36:10.577Z,13.29
2023-02-13T16:38:44.963Z,13.28
2023-02-13T16:41:17.851Z,13.26
2023-02-13T16:43:53.209Z,13.25
2023-02-13T16:46:27.705Z,13.24
2023-02-13T16:48:57.492Z,13.21
2023-02-13T16:51:30.121Z,13.20
2023-02-13T16:54:01.959Z,13.19
2023-02-13T16:56:37.223Z,13.17
2023-02-13T16:59:32.654Z,13.15
2023-02-13T17:02:10.806Z,13.15
2023-02-13T17:04:39.152Z,13.11
2023-02-13T17:07:14.052Z,13.12
2023-02-13T17:09:41.003Z,13.11
2023-02-13T17:12:15.541Z,13.08
2023-02-13T17:14:42.883Z,13.07
2023-02-13T17:17:18.153Z,13.05
2023-02-13T17:19:45.353Z,13.04
2023-02-13T17:22:43.595Z,13.00
2023-02-13T17:25:28.708Z,13.00
2023-02-13T17:27:59.375Z,12.98
2023-02-13T17:30:30.634Z,12.97
2023-02-13T17:33:24.946Z,12.94
2023-02-13T17:35:52.432Z,12.91
2023-02-13T17:38:19.807Z,12.88
2023-02-13T17:40:47.215Z,12.86
2023-02-13T17:43:17.499Z,12.85
2023-02-13T17:45:45.798Z,12.84
2023-02-13T17:48:12.730Z,12.82
2023-02-13T17:50:39.863Z,12.80
2023-02-13T17:53:16.828Z,12.80
2023-02-13T17:55:43.613Z,12.78
2023-02-13T17:58:10.421Z,12.78
2023-02-13T18:00:37.228Z,12.77
2023-02-13T18:03:04.643Z,12.76
2023-02-13T18:05:33.046Z,12.74
2023-02-13T18:08:02.585Z,12.73
2023-02-13T18:10:33.645Z,12.72
2023-02-13T18:13:04.393Z,12.70
2023-02-13T18:15:35.401Z,12.70
2023-02-13T18:18:02.331Z,12.68
2023-02-13T18:20:29.107Z,12.67
2023-02-13T18:22:56.906Z,12.65
2023-02-13T18:25:23.865Z,12.62
2023-02-13T18:27:51.360Z,12.62
2023-02-13T18:30:20.657Z,12.60
2023-02-13T18:32:53.900Z,12.59
2023-02-13T18:35:22.546Z,12.56
2023-02-13T18:37:49.687Z,12.54
2023-02-13T18:40:17.522Z,12.52
2023-02-13T18:42:44.821Z,12.51
2023-02-13T18:45:12.120Z,12.50
2023-02-13T18:47:39.324Z,12.50
2023-02-13T18:50:07.497Z,12.48
2023-02-13T18:52:35.009Z,12.45
2023-02-13T18:55:01.835Z,12.43
2023-02-13T18:57:28.996Z,12.40
2023-02-13T18:59:55.911Z,12.38
2023-02-13T19:02:23.322Z,12.36
2023-02-13T19:04:50.251Z,12.34
2023-02-13T19:07:17.111Z,12.32
2023-02-13T19:09:44.425Z,12.29
2023-02-13T19:12:11.452Z,12.27
2023-02-13T19:14:39.531Z,12.21
2023-02-13T19:17:08.510Z,12.17
2023-02-13T19:19:35.462Z,12.09
2023-02-13T19:22:03.338Z,12.03
2023-02-13T19:24:30.302Z,11.97
2023-02-13T19:26:57.161Z,11.89
2023-02-13T19:29:23.978Z,11.83
2023-02-13T19:31:50.881Z,11.78
2023-02-13T19:34:17.682Z,11.71
2023-02-13T19:36:44.550Z,11.64
2023-02-13T19:39:11.665Z,11.59
2023-02-13T19:41:40.498Z,11.53
2023-02-13T19:44:09.608Z,11.47
2023-02-13T19:46:42.399Z,11.40
2023-02-13T19:49:13.954Z,11.34
2023-02-13T19:51:42.522Z,11.26
2023-02-13T19:54:13.527Z,11.19
2023-02-13T19:56:40.789Z,11.13
2023-02-13T19:59:13.664Z,11.08
2023-02-13T20:01:44.464Z,10.99
2023-02-13T20:04:16.290Z,10.94
2023-02-13T20:06:48.036Z,10.86
2023-02-13T20:09:15.134Z,10.78
2023-02-13T20:11:42.921Z,10.71
2023-02-13T20:14:14.950Z,10.65
2023-02-13T20:16:42.978Z,10.59
2023-02-13T20:19:12.115Z,10.52
2023-02-13T20:21:41.810Z,10.46
2023-02-13T20:24:10.335Z,10.40
2023-02-13T20:26:38.810Z,10.34
2023-02-13T20:29:06.136Z,10.28
2023-02-13T20:31:34.665Z,10.23
2023-02-13T20:34:02.281Z,10.18
2023-02-13T20:36:31.165Z,10.12
2023-02-13T20:39:02.546Z,10.07
2023-02-13T20:41:33.329Z,10.02
2023-02-13T20:44:03.788Z,9.97
2023-02-13T20:46:33.355Z,9.92
2023-02-13T20:49:00.314Z,9.87
2023-02-13T20:51:27.468Z,9.82
2023-02-13T20:53:55.324Z,9.79
2023-02-13T20:56:24.692Z,9.74
2023-02-13T20:58:55.762Z,9.71
2023-02-13T21:01:33.312Z,9.67
2023-02-13T21:04:00.722Z,9.60
2023-02-13T21:06:47.091Z,9.56
2023-02-13T21:09:17.731Z,9.51
2023-02-13T21:11:47.597Z,9.48
2023-02-13T21:14:17.766Z,9.45
2023-02-13T21:16:46.962Z,9.39
2023-02-13T21:19:17.673Z,9.35
2023-02-13T21:21:45.446Z,9.33
2023-02-13T21:24:33.768Z,9.30
2023-02-13T21:27:17.939Z,9.24
2023-02-13T21:29:44.948Z,9.20
2023-02-13T21:32:11.913Z,9.16
2023-02-13T21:34:44.342Z,9.15
2023-02-13T21:37:11.162Z,9.11
2023-02-13T21:39:38.037Z,9.08
2023-02-13T21:42:05.012Z,9.05
2023-02-13T21:44:31.854Z,8.99
2023-02-13T21:46:58.663Z,8.96
2023-02-13T21:49:25.658Z,8.95
2023-02-13T21:51:57.522Z,8.92
2023-02-13T21:54:24.306Z,8.87
2023-02-13T21:56:51.083Z,8.85
2023-02-13T22:02:05.317Z,8.78
2023-02-13T22:04:32.145Z,8.75
2023-02-13T22:06:58.936Z,8.72
2023-02-13T22:09:33.227Z,8.70
2023-02-13T22:12:23.258Z,8.67
2023-02-13T22:14:50.589Z,8.62
2023-02-13T22:17:41.172Z,8.59
2023-02-13T22:20:16.845Z,8.56
2023-02-13T22:22:44.952Z,8.51
2023-02-13T22:27:57.720Z,8.46
2023-02-13T22:30:29.849Z,8.44
2023-02-13T22:33:10.274Z,8.41
2023-02-13T22:35:42.094Z,8.39
2023-02-13T22:38:10.994Z,8.33
2023-02-13T22:40:39.149Z,8.30
2023-02-13T22:43:06.524Z,8.30
2023-02-13T22:45:38.099Z,8.26
2023-02-13T22:48:11.731Z,8.24
2023-02-13T22:50:38.593Z,8.19
2023-02-13T22:53:12.683Z,8.18
2023-02-13T22:55:39.900Z,8.16
2023-02-13T22:58:06.897Z,8.11
2023-02-13T23:00:34.846Z,8.07
2023-02-13T23:03:01.696Z,8.04
2023-02-13T23:05:28.607Z,8.02
2023-02-13T23:07:55.581Z,8.00
2023-02-13T23:10:29.199Z,7.97
2023-02-13T23:17:16.068Z,7.85
2023-02-13T23:19:42.964Z,7.80
2023-02-13T23:22:12.465Z,7.80
2023-02-13T23:24:40.301Z,7.77
2023-02-13T23:29:50.972Z,7.72
2023-02-13T23:32:55.668Z,7.71
2023-02-13T23:35:30.008Z,7.66
2023-02-13T23:40:43.296Z,7.58
2023-02-13T23:43:15.390Z,7.57
2023-02-13T23:45:53.884Z,7.56
2023-02-13T23:48:27.619Z,7.51
2023-02-13T23:56:54.098Z,7.44
